Terminal Aerodrome Forecast
Issued by NWS

Current Version | Previous Version | Text Only | Print | Product List | Glossary On
Versions: 1 2 3 4 5 6 7 8 9 10 11 12 13 14 15 16 17 18 19 20 21 22 23 24 25 26
107
FTUS43 KDTX 202320
TAFDET
TAF
KDET 202320Z 2100/2124 19004KT 2SM BR OVC004
      TEMPO 2100/2102 1/2SM FG OVC003
     FM210200 VRB03KT 1/2SM FG OVC003
     FM210400 VRB03KT 1/4SM FG VV002
     FM211400 17007KT 1SM BR OVC002
     FM211700 18008KT 3SM BR OVC004=

USA.gov is the U.S. government's official web portal to all federal, state and local government web resources and services.